createdAt,value
2023-02-11T00:00:17.287Z,103204.28
2023-02-11T00:02:49.852Z,103199.97
2023-02-11T00:05:22.371Z,103184.56
2023-02-11T00:07:54.924Z,103178.13
2023-02-11T00:10:27.426Z,103177.16
2023-02-11T00:12:59.975Z,103190.63
2023-02-11T00:15:32.442Z,103187.06
2023-02-11T00:18:05.034Z,103183.22
2023-02-11T00:20:39.878Z,103179.53
2023-02-11T00:23:12.933Z,103173.72
2023-02-11T00:25:45.986Z,103170.56
2023-02-11T00:28:18.552Z,103160.53
2023-02-11T00:30:58.283Z,103170.09
2023-02-11T00:33:30.866Z,103177.28
2023-02-11T00:36:10.335Z,103175.50
2023-02-11T00:38:44.786Z,103175.34
2023-02-11T00:41:18.552Z,103178.47
2023-02-11T00:43:51.760Z,103166.59
2023-02-11T00:46:24.625Z,103175.06
2023-02-11T00:48:57.981Z,103160.38
2023-02-11T00:51:30.835Z,103169.13
2023-02-11T00:54:05.377Z,103158.22
2023-02-11T00:56:38.063Z,103164.16
2023-02-11T00:59:10.681Z,103167.94
2023-02-11T01:01:43.427Z,103169.22
2023-02-11T01:04:16.069Z,103165.31
2023-02-11T01:06:48.692Z,103172.88
2023-02-11T01:09:21.301Z,103173.81
2023-02-11T01:11:53.793Z,103164.84
2023-02-11T01:14:26.396Z,103174.06
2023-02-11T01:16:58.990Z,103179.16
2023-02-11T01:19:31.595Z,103176.53
2023-02-11T01:22:05.288Z,103175.81
2023-02-11T01:24:37.954Z,103179.09
2023-02-11T01:27:10.461Z,103178.34
2023-02-11T01:29:43.079Z,103184.78
2023-02-11T01:32:15.714Z,103189.00
2023-02-11T01:34:48.389Z,103188.72
2023-02-11T01:37:21.008Z,103176.00
2023-02-11T01:39:53.757Z,103179.78
2023-02-11T01:42:26.369Z,103171.53
2023-02-11T01:45:21.945Z,103164.81
2023-02-11T01:47:54.504Z,103155.88
2023-02-11T01:50:27.134Z,103154.09
2023-02-11T01:53:20.012Z,103152.00
2023-02-11T01:56:13.552Z,103161.22
2023-02-11T01:58:51.518Z,103152.00
2023-02-11T02:01:27.571Z,103147.41
2023-02-11T02:04:06.052Z,103151.06
2023-02-11T02:06:55.973Z,103153.94
2023-02-11T02:09:36.761Z,103152.03
2023-02-11T02:12:10.109Z,103148.31
2023-02-11T02:14:43.134Z,103141.41
2023-02-11T02:17:43.066Z,103134.41
2023-02-11T02:20:52.924Z,103139.91
2023-02-11T02:24:09.056Z,103149.41
2023-02-11T02:27:03.662Z,103147.50
2023-02-11T02:30:25.959Z,103145.31
2023-02-11T02:33:24.794Z,103144.53
2023-02-11T02:36:34.418Z,103150.53
2023-02-11T02:39:15.659Z,103150.13
2023-02-11T02:41:50.858Z,103141.28
2023-02-11T02:44:24.653Z,103139.41
2023-02-11T02:46:58.053Z,103143.19
2023-02-11T02:49:30.636Z,103143.53
2023-02-11T02:52:57.176Z,103133.59
2023-02-11T02:55:47.952Z,103134.56
2023-02-11T02:58:54.038Z,103131.72
2023-02-11T03:02:06.691Z,103136.78
2023-02-11T03:04:57.544Z,103145.56
2023-02-11T03:07:47.416Z,103149.09
2023-02-11T03:10:28.137Z,103148.03
2023-02-11T03:13:03.717Z,103137.50
2023-02-11T03:15:46.069Z,103133.25
2023-02-11T03:18:25.033Z,103133.13
2023-02-11T03:20:59.942Z,103128.06
2023-02-11T03:23:41.342Z,103128.97
2023-02-11T03:26:43.754Z,103125.09
2023-02-11T03:29:49.320Z,103116.38
2023-02-11T03:32:50.997Z,103123.81
2023-02-11T03:35:35.439Z,103120.44
2023-02-11T03:38:21.565Z,103120.53
2023-02-11T03:40:56.609Z,103125.84
2023-02-11T03:43:38.799Z,103122.34
2023-02-11T03:46:18.124Z,103121.19
2023-02-11T03:48:58.722Z,103134.41
2023-02-11T03:51:33.800Z,103141.22
2023-02-11T03:54:14.682Z,103145.91
2023-02-11T03:56:56.469Z,103141.84
2023-02-11T03:59:29.364Z,103136.50
2023-02-11T04:02:02.016Z,103139.97
2023-02-11T04:04:34.566Z,103139.59
2023-02-11T04:07:07.098Z,103131.72
2023-02-11T04:09:39.676Z,103125.97
2023-02-11T04:12:12.405Z,103117.22
2023-02-11T04:14:45.266Z,103109.06
2023-02-11T04:17:18.567Z,103106.59
2023-02-11T04:19:51.179Z,103101.44
2023-02-11T04:22:23.779Z,103106.59
2023-02-11T04:24:56.565Z,103106.63
2023-02-11T04:27:29.164Z,103093.34
2023-02-11T04:30:02.089Z,103089.00
2023-02-11T04:32:34.822Z,103099.59
2023-02-11T04:35:07.982Z,103092.25
2023-02-11T04:37:40.832Z,103094.28
2023-02-11T04:40:13.524Z,103086.91
2023-02-11T04:42:46.125Z,103090.81
2023-02-11T04:45:18.677Z,103103.63
2023-02-11T04:47:51.310Z,103101.28
2023-02-11T04:50:24.256Z,103101.78
2023-02-11T04:52:56.926Z,103102.63
2023-02-11T04:55:29.630Z,103106.38
2023-02-11T04:58:02.267Z,103115.59
2023-02-11T05:00:34.890Z,103111.06
2023-02-11T05:03:07.393Z,103111.59
2023-02-11T05:05:41.598Z,103106.44
2023-02-11T05:08:14.186Z,103101.50
2023-02-11T05:10:48.017Z,103114.53
2023-02-11T05:13:20.592Z,103114.34
2023-02-11T05:15:53.450Z,103113.66
2023-02-11T05:18:26.237Z,103121.19
2023-02-11T05:20:58.853Z,103116.75
2023-02-11T05:23:31.449Z,103114.63
2023-02-11T05:26:04.949Z,103107.06
2023-02-11T05:28:40.409Z,103100.72
2023-02-11T05:31:14.581Z,103102.91
2023-02-11T05:33:47.358Z,103104.31
2023-02-11T05:36:20.019Z,103098.31
2023-02-11T05:38:52.525Z,103095.72
2023-02-11T05:41:25.186Z,103098.22
2023-02-11T05:43:57.786Z,103083.06
2023-02-11T05:46:30.438Z,103090.69
2023-02-11T05:49:03.929Z,103097.41
2023-02-11T05:51:36.953Z,103090.34
2023-02-11T05:54:09.697Z,103090.66
2023-02-11T05:56:44.835Z,103095.69
2023-02-11T05:59:17.635Z,103099.88
2023-02-11T06:01:50.220Z,103096.56
2023-02-11T06:04:22.863Z,103101.81
2023-02-11T06:06:55.393Z,103099.19
2023-02-11T06:09:28.019Z,103107.53
2023-02-11T06:12:00.599Z,103105.44
2023-02-11T06:14:34.216Z,103108.81
2023-02-11T06:17:07.102Z,103103.28
2023-02-11T06:19:39.690Z,103101.56
2023-02-11T06:22:12.334Z,103107.03
2023-02-11T06:25:00.225Z,103109.81
2023-02-11T06:27:33.795Z,103110.59
2023-02-11T06:30:08.138Z,103103.56
2023-02-11T06:32:45.402Z,103101.78
2023-02-11T06:35:18.565Z,103109.19
2023-02-11T06:37:53.756Z,103107.94
2023-02-11T06:40:26.383Z,103105.97
2023-02-11T06:43:00.141Z,103108.06
2023-02-11T06:45:32.814Z,103103.97
2023-02-11T06:48:05.632Z,103108.75
2023-02-11T06:50:38.423Z,103112.91
2023-02-11T06:53:11.049Z,103121.88
2023-02-11T06:55:43.742Z,103122.84
2023-02-11T06:58:16.323Z,103127.22
2023-02-11T07:00:48.853Z,103128.47
2023-02-11T07:03:21.458Z,103126.78
2023-02-11T07:05:53.994Z,103119.69
2023-02-11T07:08:26.806Z,103136.81
2023-02-11T07:10:59.499Z,103132.50
2023-02-11T07:13:32.093Z,103137.78
2023-02-11T07:16:12.405Z,103133.81
2023-02-11T07:18:46.916Z,103137.78
2023-02-11T07:21:22.334Z,103150.06
2023-02-11T07:23:54.954Z,103143.41
2023-02-11T07:26:28.923Z,103150.72
2023-02-11T07:29:02.056Z,103139.34
2023-02-11T07:31:34.677Z,103147.84
2023-02-11T07:34:07.340Z,103145.75
2023-02-11T07:36:40.023Z,103146.00
2023-02-11T07:39:12.879Z,103154.41
2023-02-11T07:41:47.738Z,103157.81
2023-02-11T07:44:20.320Z,103158.00
2023-02-11T07:46:53.261Z,103161.69
2023-02-11T07:49:25.807Z,103159.38
2023-02-11T07:51:58.315Z,103165.53
2023-02-11T07:54:30.848Z,103169.41
2023-02-11T07:57:03.601Z,103177.72
2023-02-11T07:59:36.111Z,103171.41
2023-02-11T08:02:10.359Z,103181.03
2023-02-11T08:04:43.063Z,103174.19
2023-02-11T08:07:17.590Z,103183.47
2023-02-11T08:09:50.193Z,103183.69
2023-02-11T08:12:22.696Z,103179.44
2023-02-11T08:14:56.240Z,103175.84
2023-02-11T08:17:28.804Z,103182.38
2023-02-11T08:20:01.568Z,103190.84
2023-02-11T08:22:34.824Z,103191.75
2023-02-11T08:25:07.825Z,103184.63
2023-02-11T08:27:40.394Z,103184.63
2023-02-11T08:30:14.129Z,103189.13
2023-02-11T08:32:47.453Z,103182.84
2023-02-11T08:35:20.048Z,103181.25
2023-02-11T08:37:53.231Z,103187.19
2023-02-11T08:40:25.801Z,103192.75
2023-02-11T08:42:58.300Z,103192.31
2023-02-11T08:45:30.919Z,103196.66
2023-02-11T08:48:03.566Z,103190.53
2023-02-11T08:50:39.847Z,103193.59
2023-02-11T08:53:12.492Z,103189.94
2023-02-11T08:55:51.250Z,103198.66
2023-02-11T08:58:24.023Z,103197.84
2023-02-11T09:00:56.769Z,103201.91
2023-02-11T09:03:29.715Z,103203.75
2023-02-11T09:06:06.808Z,103208.19
2023-02-11T09:08:45.278Z,103206.88
2023-02-11T09:11:21.924Z,103205.19
2023-02-11T09:13:54.829Z,103200.34
2023-02-11T09:16:31.940Z,103205.50
2023-02-11T09:19:05.647Z,103204.16
2023-02-11T09:21:38.330Z,103205.97
2023-02-11T09:24:11.516Z,103207.63
2023-02-11T09:26:44.325Z,103203.03
2023-02-11T09:29:17.012Z,103202.44
2023-02-11T09:31:50.280Z,103219.75
2023-02-11T09:34:23.066Z,103211.63
2023-02-11T09:36:55.669Z,103225.19
2023-02-11T09:39:29.293Z,103235.94
2023-02-11T09:42:37.949Z,103234.25
2023-02-11T09:45:28.428Z,103236.84
2023-02-11T09:48:34.684Z,103237.44
2023-02-11T09:51:20.625Z,103238.69
2023-02-11T09:54:02.153Z,103240.50
2023-02-11T09:56:36.783Z,103231.22
2023-02-11T09:59:17.647Z,103245.63
2023-02-11T10:02:02.382Z,103241.03
2023-02-11T10:04:56.295Z,103251.03
2023-02-11T10:07:46.193Z,103247.94
2023-02-11T10:10:47.423Z,103247.19
2023-02-11T10:13:46.983Z,103246.91
2023-02-11T10:16:22.525Z,103245.00
2023-02-11T10:19:21.376Z,103246.50
2023-02-11T10:22:25.476Z,103263.00
2023-02-11T10:25:00.432Z,103260.06
2023-02-11T10:27:36.556Z,103271.38
2023-02-11T10:30:40.845Z,103277.44
2023-02-11T10:33:23.613Z,103279.69
2023-02-11T10:35:56.286Z,103277.88
2023-02-11T10:38:28.879Z,103278.84
2023-02-11T10:41:01.383Z,103280.72
2023-02-11T10:43:34.964Z,103279.59
2023-02-11T10:46:19.271Z,103278.69
2023-02-11T10:48:53.779Z,103281.91
2023-02-11T10:51:34.224Z,103291.41
2023-02-11T10:54:08.243Z,103293.66
2023-02-11T10:56:58.835Z,103298.50
2023-02-11T10:59:40.426Z,103293.97
2023-02-11T11:02:34.428Z,103302.88
2023-02-11T11:05:18.841Z,103297.41
2023-02-11T11:07:59.616Z,103300.97
2023-02-11T11:10:46.509Z,103300.91
2023-02-11T11:13:35.673Z,103303.56
2023-02-11T11:16:29.230Z,103301.69
2023-02-11T11:19:08.060Z,103300.72
2023-02-11T11:21:44.118Z,103296.69
2023-02-11T11:24:31.272Z,103301.28
2023-02-11T11:27:05.309Z,103303.63
2023-02-11T11:29:46.039Z,103295.78
2023-02-11T11:32:23.979Z,103292.59
2023-02-11T11:35:08.455Z,103301.63
2023-02-11T11:37:42.306Z,103306.34
2023-02-11T11:40:25.653Z,103300.63
2023-02-11T11:43:23.065Z,103304.41
2023-02-11T11:45:59.707Z,103316.00
2023-02-11T11:48:46.875Z,103313.22
2023-02-11T11:51:19.985Z,103310.41
2023-02-11T11:54:12.117Z,103316.13
2023-02-11T11:57:00.524Z,103305.97
2023-02-11T11:59:33.214Z,103305.09
2023-02-11T12:02:26.439Z,103301.09
2023-02-11T12:05:16.009Z,103298.34
2023-02-11T12:08:04.281Z,103305.25
2023-02-11T12:11:10.631Z,103298.38
2023-02-11T12:14:27.121Z,103300.94
2023-02-11T12:17:38.853Z,103297.75
2023-02-11T12:20:36.372Z,103285.44
2023-02-11T12:24:06.394Z,103287.56
2023-02-11T12:26:52.290Z,103278.00
2023-02-11T12:29:47.724Z,103279.56
2023-02-11T12:32:49.543Z,103270.19
2023-02-11T12:35:43.129Z,103272.09
2023-02-11T12:38:46.943Z,103271.53
2023-02-11T12:42:00.999Z,103276.16
2023-02-11T12:45:02.980Z,103276.38
2023-02-11T12:47:44.748Z,103269.69
2023-02-11T12:51:20.918Z,103268.03
2023-02-11T12:54:21.708Z,103265.94
2023-02-11T12:57:30.981Z,103263.63
2023-02-11T13:00:33.743Z,103260.47
2023-02-11T13:03:29.624Z,103253.19
2023-02-11T13:06:13.186Z,103258.06
2023-02-11T13:08:51.320Z,103264.19
2023-02-11T13:11:29.557Z,103262.63
2023-02-11T13:14:24.435Z,103263.13
2023-02-11T13:16:58.670Z,103256.78
2023-02-11T13:19:49.099Z,103247.91
2023-02-11T13:22:38.549Z,103252.94
2023-02-11T13:25:43.194Z,103259.50
2023-02-11T13:28:48.307Z,103257.91
2023-02-11T13:31:21.077Z,103257.56
2023-02-11T13:33:54.312Z,103252.25
2023-02-11T13:36:32.740Z,103252.66
2023-02-11T13:39:06.794Z,103253.44
2023-02-11T13:41:41.893Z,103261.34
2023-02-11T13:44:19.244Z,103258.69
2023-02-11T13:47:08.009Z,103249.50
2023-02-11T13:49:49.270Z,103243.00
2023-02-11T13:52:34.893Z,103248.38
2023-02-11T13:55:13.536Z,103243.75
2023-02-11T13:58:06.160Z,103239.66
2023-02-11T14:00:38.662Z,103251.84
2023-02-11T14:03:29.792Z,103252.03
2023-02-11T14:06:26.805Z,103252.88
2023-02-11T14:09:14.633Z,103253.97
2023-02-11T14:11:52.212Z,103250.69
2023-02-11T14:14:32.079Z,103252.78
2023-02-11T14:17:07.708Z,103260.97
2023-02-11T14:19:47.194Z,103254.47
2023-02-11T14:22:27.725Z,103252.03
2023-02-11T14:25:18.374Z,103251.03
2023-02-11T14:27:59.225Z,103260.16
2023-02-11T14:30:53.874Z,103252.09
2023-02-11T14:34:37.965Z,103247.97
2023-02-11T14:37:30.192Z,103254.19
2023-02-11T14:40:29.342Z,103257.91
2023-02-11T14:43:29.851Z,103262.56
2023-02-11T14:46:03.318Z,103260.88
2023-02-11T14:48:43.173Z,103262.16
2023-02-11T14:51:26.554Z,103261.50
2023-02-11T14:54:13.373Z,103264.91
2023-02-11T14:56:46.769Z,103263.88
2023-02-11T14:59:22.871Z,103260.16
2023-02-11T15:01:55.480Z,103265.59
2023-02-11T15:04:33.009Z,103266.44
2023-02-11T15:07:10.620Z,103266.03
2023-02-11T15:09:49.494Z,103279.09
2023-02-11T15:12:28.326Z,103279.28
2023-02-11T15:15:01.356Z,103271.97
2023-02-11T15:17:34.127Z,103278.47
2023-02-11T15:20:15.802Z,103269.97
2023-02-11T15:22:59.655Z,103274.53
2023-02-11T15:25:34.151Z,103279.75
2023-02-11T15:28:23.976Z,103287.75
2023-02-11T15:31:17.288Z,103278.03
2023-02-11T15:33:51.822Z,103282.25
2023-02-11T15:36:28.812Z,103287.88
2023-02-11T15:39:37.435Z,103294.59
2023-02-11T15:42:40.766Z,103298.91
2023-02-11T15:45:20.510Z,103296.09
2023-02-11T15:47:59.231Z,103295.25
2023-02-11T15:50:37.149Z,103291.69
2023-02-11T15:53:37.048Z,103294.19
2023-02-11T15:56:24.361Z,103298.38
2023-02-11T15:59:01.209Z,103293.25
2023-02-11T16:01:37.213Z,103285.41
2023-02-11T16:04:17.141Z,103291.47
2023-02-11T16:06:51.563Z,103288.03
2023-02-11T16:09:31.484Z,103288.03
2023-02-11T16:12:27.100Z,103291.56
2023-02-11T16:15:03.835Z,103290.47
2023-02-11T16:17:36.430Z,103293.34
2023-02-11T16:20:19.471Z,103289.59
2023-02-11T16:22:52.641Z,103293.16
2023-02-11T16:25:25.257Z,103297.25
2023-02-11T16:27:58.071Z,103298.91
2023-02-11T16:30:40.615Z,103300.72
2023-02-11T16:33:13.317Z,103300.72
2023-02-11T16:35:47.658Z,103298.22
2023-02-11T16:38:20.239Z,103299.94
2023-02-11T16:40:53.074Z,103300.81
2023-02-11T16:43:25.864Z,103300.56
2023-02-11T16:45:58.977Z,103308.41
2023-02-11T16:48:32.746Z,103300.38
2023-02-11T16:51:08.013Z,103303.19
2023-02-11T16:53:40.700Z,103301.50
2023-02-11T16:56:18.354Z,103309.50
2023-02-11T16:58:51.014Z,103317.47
2023-02-11T17:01:23.700Z,103312.28
2023-02-11T17:03:56.356Z,103316.31
2023-02-11T17:06:29.149Z,103311.91
2023-02-11T17:09:02.119Z,103317.50
2023-02-11T17:11:34.623Z,103315.34
2023-02-11T17:14:07.102Z,103321.53
2023-02-11T17:16:40.312Z,103326.75
2023-02-11T17:19:16.052Z,103337.44
2023-02-11T17:21:52.030Z,103333.94
2023-02-11T17:24:24.586Z,103334.50
2023-02-11T17:26:57.374Z,103325.50
2023-02-11T17:29:30.043Z,103338.50
2023-02-11T17:32:02.625Z,103333.22
2023-02-11T17:34:35.399Z,103331.88
2023-02-11T17:37:09.379Z,103342.72
2023-02-11T17:39:42.144Z,103343.41
2023-02-11T17:42:14.823Z,103347.38
2023-02-11T17:44:47.410Z,103354.66
2023-02-11T17:47:20.024Z,103357.38
2023-02-11T17:49:52.597Z,103373.50
2023-02-11T17:52:27.835Z,103374.16
2023-02-11T17:55:00.557Z,103375.91
2023-02-11T17:57:33.516Z,103375.13
2023-02-11T18:00:08.084Z,103371.88
2023-02-11T18:02:40.716Z,103382.16
2023-02-11T18:05:13.208Z,103381.56
2023-02-11T18:07:46.272Z,103379.28
2023-02-11T18:10:19.035Z,103383.84
2023-02-11T18:12:51.544Z,103382.00
2023-02-11T18:15:24.159Z,103389.03
2023-02-11T18:17:56.761Z,103391.44
2023-02-11T18:20:29.351Z,103396.31
2023-02-11T18:23:02.681Z,103392.19
2023-02-11T18:25:35.594Z,103400.88
2023-02-11T18:28:08.390Z,103386.13
2023-02-11T18:30:40.932Z,103387.56
2023-02-11T18:33:14.520Z,103388.56
2023-02-11T18:35:49.017Z,103390.06
2023-02-11T18:38:23.090Z,103394.91
2023-02-11T18:40:58.451Z,103411.34
2023-02-11T18:43:33.707Z,103404.34
2023-02-11T18:46:10.622Z,103415.31
2023-02-11T18:48:44.865Z,103409.16
2023-02-11T18:51:18.776Z,103412.44
2023-02-11T18:53:52.211Z,103410.47
2023-02-11T18:56:27.795Z,103410.50
2023-02-11T18:59:01.378Z,103410.06
2023-02-11T19:01:34.566Z,103403.38
2023-02-11T19:04:07.281Z,103410.06
2023-02-11T19:06:39.828Z,103415.31
2023-02-11T19:09:17.037Z,103409.13
2023-02-11T19:11:54.036Z,103410.09
2023-02-11T19:14:31.554Z,103416.47
2023-02-11T19:17:07.373Z,103412.22
2023-02-11T19:19:41.018Z,103413.84
2023-02-11T19:22:13.784Z,103413.44
2023-02-11T19:24:46.538Z,103411.81
2023-02-11T19:27:19.143Z,103415.47
2023-02-11T19:29:51.616Z,103422.63
2023-02-11T19:32:24.302Z,103425.75
2023-02-11T19:34:56.780Z,103426.03
2023-02-11T19:37:29.262Z,103421.88
2023-02-11T19:40:01.906Z,103422.88
2023-02-11T19:42:34.637Z,103432.81
2023-02-11T19:45:08.254Z,103431.09
2023-02-11T19:47:40.842Z,103442.34
2023-02-11T19:50:13.419Z,103437.13
2023-02-11T19:52:45.969Z,103441.09
2023-02-11T19:55:18.753Z,103451.88
2023-02-11T19:57:51.258Z,103438.94
2023-02-11T20:00:23.874Z,103445.81
2023-02-11T20:02:56.520Z,103451.00
2023-02-11T20:05:29.141Z,103453.56
2023-02-11T20:08:01.638Z,103453.75
2023-02-11T20:10:34.853Z,103449.44
2023-02-11T20:13:07.345Z,103453.69
2023-02-11T20:15:40.016Z,103449.22
2023-02-11T20:18:12.708Z,103453.28
2023-02-11T20:20:45.299Z,103457.56
2023-02-11T20:23:17.955Z,103465.41
2023-02-11T20:25:50.871Z,103474.34
2023-02-11T20:28:23.666Z,103468.97
2023-02-11T20:30:59.975Z,103471.84
2023-02-11T20:33:34.807Z,103473.13
2023-02-11T20:36:10.628Z,103481.00
2023-02-11T20:38:44.133Z,103490.59
2023-02-11T20:41:32.460Z,103485.47
2023-02-11T20:44:08.575Z,103488.03
2023-02-11T20:46:45.764Z,103483.53
2023-02-11T20:49:23.943Z,103492.66
2023-02-11T20:51:58.432Z,103493.69
2023-02-11T20:54:31.227Z,103487.72
2023-02-11T20:57:04.128Z,103491.16
2023-02-11T20:59:36.721Z,103505.19
2023-02-11T21:02:10.328Z,103506.03
2023-02-11T21:04:43.097Z,103507.91
2023-02-11T21:07:16.023Z,103509.53
2023-02-11T21:09:48.582Z,103509.00
2023-02-11T21:12:21.204Z,103512.97
2023-02-11T21:14:54.846Z,103509.28
2023-02-11T21:17:27.577Z,103511.47
2023-02-11T21:20:00.135Z,103517.06
2023-02-11T21:22:32.758Z,103511.59
2023-02-11T21:25:06.115Z,103519.94
2023-02-11T21:27:38.743Z,103520.09
2023-02-11T21:30:13.036Z,103523.53
2023-02-11T21:32:45.706Z,103530.88
2023-02-11T21:35:18.256Z,103526.22
2023-02-11T21:37:51.127Z,103535.13
2023-02-11T21:40:27.430Z,103535.56
2023-02-11T21:43:00.019Z,103539.44
2023-02-11T21:45:32.777Z,103531.63
2023-02-11T21:48:05.462Z,103534.81
2023-02-11T21:50:43.352Z,103533.81
2023-02-11T21:53:16.034Z,103542.22
2023-02-11T21:55:51.146Z,103546.97
2023-02-11T21:58:23.937Z,103546.59
2023-02-11T22:00:56.602Z,103548.22
2023-02-11T22:03:29.168Z,103534.50
2023-02-11T22:06:10.548Z,103546.41
2023-02-11T22:08:43.394Z,103552.03
2023-02-11T22:11:16.692Z,103538.91
2023-02-11T22:13:57.769Z,103542.16
2023-02-11T22:16:31.655Z,103540.53
2023-02-11T22:19:06.033Z,103544.28
2023-02-11T22:21:39.163Z,103544.50
2023-02-11T22:24:11.846Z,103548.84
2023-02-11T22:26:44.617Z,103546.31
2023-02-11T22:29:17.302Z,103559.31
2023-02-11T22:31:50.013Z,103551.09
2023-02-11T22:34:22.532Z,103552.00
2023-02-11T22:36:55.345Z,103546.66
2023-02-11T22:39:29.372Z,103546.59
2023-02-11T22:42:02.012Z,103542.16
2023-02-11T22:44:34.482Z,103550.44
2023-02-11T22:47:07.064Z,103553.91
2023-02-11T22:49:41.300Z,103543.22
2023-02-11T22:52:13.929Z,103551.94
2023-02-11T22:54:46.510Z,103552.94
2023-02-11T22:57:19.168Z,103555.69
2023-02-11T22:59:51.696Z,103553.44
2023-02-11T23:02:24.486Z,103549.69
2023-02-11T23:04:57.057Z,103551.88
2023-02-11T23:07:29.827Z,103551.06
2023-02-11T23:10:02.388Z,103548.31
2023-02-11T23:12:34.956Z,103556.03
2023-02-11T23:15:08.143Z,103556.44
2023-02-11T23:17:40.769Z,103558.13
2023-02-11T23:20:13.593Z,103553.91
2023-02-11T23:22:46.232Z,103550.31
2023-02-11T23:25:18.775Z,103545.91
2023-02-11T23:27:51.322Z,103557.53
2023-02-11T23:30:24.264Z,103556.56
2023-02-11T23:32:56.789Z,103553.31
2023-02-11T23:35:29.361Z,103553.50
2023-02-11T23:38:02.266Z,103555.94
2023-02-11T23:40:34.919Z,103552.94
2023-02-11T23:43:07.575Z,103554.16
2023-02-11T23:45:40.127Z,103550.53
2023-02-11T23:48:12.699Z,103552.00
2023-02-11T23:50:47.675Z,103562.75
2023-02-11T23:53:20.584Z,103561.06
2023-02-11T23:55:53.671Z,103559.44
2023-02-11T23:58:26.398Z,103555.41
